Time;durP1;ratioP1;P1;durP2;ratioP2;P2;SDS_P1;SDS_P2;PMS_P1;PMS_P2;Temp;Humidity;BMP_temperature;BMP_pressure;BME280_temperature;BME280_humidity;BME280_pressure;Samples;Min_cycle;Max_cycle;Signal;HPM_P1;HPM_P2
2022/10/02 00:02:31;;;;;;;3.13;0.35;;;;;;;9.29;58.88;100962.94;5009052;28;20045;-76
2022/10/02 00:05:03;;;;;;;2.22;0.50;;;;;;;9.28;58.90;100971.66;4998463;28;20041;-77
2022/10/02 00:07:52;;;;;;;6.63;0.38;;;;;;;9.32;59.08;100988.94;5014423;28;20486;-76
2022/10/02 00:10:30;;;;;;;3.92;0.47;;;;;;;9.35;58.47;100988.81;5008797;28;20410;-73
2022/10/02 00:13:07;;;;;;;7.85;0.25;;;;;;;9.25;58.78;100994.38;5013277;28;20041;-74
2022/10/02 00:15:36;;;;;;;6.30;0.63;;;;;;;9.03;59.27;100994.22;5010742;28;20041;-73
2022/10/02 00:18:08;;;;;;;1.33;0.20;;;;;;;8.87;59.70;101005.09;5005105;28;20058;-73
2022/10/02 00:20:53;;;;;;;2.67;0.85;;;;;;;8.80;59.96;100993.16;5014777;28;20510;-74
2022/10/02 00:23:29;;;;;;;2.17;0.20;;;;;;;8.84;60.01;100986.97;5008957;28;20053;-68
2022/10/02 00:26:15;;;;;;;3.05;0.40;;;;;;;8.67;60.23;100984.88;5008382;28;20037;-67
2022/10/02 00:28:55;;;;;;;2.60;1.00;;;;;;;8.17;61.56;100989.78;5008845;28;20041;-67
2022/10/02 00:31:36;;;;;;;4.13;0.17;;;;;;;8.67;59.66;100978.78;5013063;28;20033;-67
2022/10/02 00:34:25;;;;;;;4.55;1.17;;;;;;;8.53;59.92;100987.84;5012728;28;20053;-66
2022/10/02 00:36:57;;;;;;;4.65;0.28;;;;;;;8.81;58.94;100984.47;5007211;28;20033;-68
2022/10/02 00:39:51;;;;;;;1.13;0.30;;;;;;;8.38;60.56;100997.88;5009513;28;20040;-67
2022/10/02 00:42:17;;;;;;;0.75;0.10;;;;;;;8.79;58.89;100996.69;5012671;28;20049;-65
2022/10/02 00:44:42;;;;;;;2.67;0.30;;;;;;;8.89;58.90;100989.44;5007904;28;20556;-65
2022/10/02 00:47:19;;;;;;;5.15;0.20;;;;;;;9.02;58.41;100992.50;5006626;28;20215;-75
2022/10/02 00:50:16;;;;;;;2.65;0.40;;;;;;;9.09;58.16;100996.63;5011792;28;20043;-73
2022/10/02 00:53:00;;;;;;;1.40;0.10;;;;;;;9.07;57.81;100988.00;5000188;28;20052;-74
2022/10/02 00:55:36;;;;;;;3.53;0.57;;;;;;;9.06;57.68;100987.16;5010220;28;20403;-75
2022/10/02 00:58:02;;;;;;;5.93;0.25;;;;;;;8.98;57.85;100987.41;4992794;28;20052;-74
2022/10/02 01:00:27;;;;;;;3.17;0.47;;;;;;;8.83;58.00;100984.41;5008124;28;20041;-65
2022/10/02 01:02:56;;;;;;;4.70;0.20;;;;;;;8.40;59.86;100996.94;4990173;28;20989;-67
2022/10/02 01:05:21;;;;;;;2.58;0.45;;;;;;;8.40;59.42;101007.34;5013060;28;20037;-69
2022/10/02 01:07:49;;;;;;;4.70;0.43;;;;;;;8.31;59.61;100998.03;5008655;28;20076;-70
2022/10/02 01:10:15;;;;;;;3.42;0.20;;;;;;;8.26;59.72;100997.31;5011014;28;20038;-65
2022/10/02 01:12:41;;;;;;;6.72;0.20;;;;;;;8.52;58.83;101000.94;5007129;28;20053;-65
2022/10/02 01:15:19;;;;;;;1.70;0.20;;;;;;;7.67;61.54;101018.03;4987260;28;20094;-65
2022/10/02 01:17:51;;;;;;;1.88;0.17;;;;;;;8.01;60.78;101014.53;5007369;28;20316;-65
2022/10/02 01:20:22;;;;;;;1.85;0.20;;;;;;;8.19;60.42;101002.78;5010414;28;20041;-65
2022/10/02 01:23:26;;;;;;;8.60;0.32;;;;;;;8.30;60.07;101008.53;5007608;28;20622;-65
2022/10/02 01:25:52;;;;;;;6.13;0.28;;;;;;;8.41;59.97;101018.66;5007535;28;20495;-65
2022/10/02 01:28:18;;;;;;;2.97;0.55;;;;;;;8.05;61.52;101010.97;5004631;28;20047;-65
2022/10/02 01:30:48;;;;;;;3.45;0.30;;;;;;;8.64;59.58;101011.00;5007869;28;20022;-74
2022/10/02 01:33:16;;;;;;;4.13;0.60;;;;;;;8.63;59.78;101008.44;5012171;28;20077;-73
2022/10/02 01:35:42;;;;;;;1.20;0.20;;;;;;;8.66;59.37;101019.63;5007255;28;20045;-76
2022/10/02 01:38:12;;;;;;;2.08;0.43;;;;;;;8.41;60.32;101019.50;5007681;28;20570;-73
2022/10/02 01:40:40;;;;;;;3.85;0.40;;;;;;;8.42;60.98;101026.38;5008838;28;20064;-73
2022/10/02 01:43:34;;;;;;;2.35;0.50;;;;;;;8.60;59.80;101031.97;5009100;28;20041;-65
2022/10/02 01:46:11;;;;;;;8.68;0.40;;;;;;;8.29;61.15;101038.06;5007906;28;20413;-66
2022/10/02 01:48:45;;;;;;;2.58;0.38;;;;;;;8.68;59.61;101028.25;5010412;28;20530;-65
2022/10/02 01:51:32;;;;;;;2.90;0.50;;;;;;;8.47;60.31;101034.94;5012071;28;20041;-70
2022/10/02 01:54:25;;;;;;;3.40;0.40;;;;;;;8.58;59.70;101045.03;5005558;28;20040;-70
2022/10/02 01:57:24;;;;;;;1.55;0.28;;;;;;;8.09;61.01;101043.81;5007063;28;20072;-69
2022/10/02 02:00:10;;;;;;;9.15;0.40;;;;;;;8.57;59.48;101046.78;5006982;28;20030;-67
2022/10/02 02:02:51;;;;;;;9.25;0.80;;;;;;;8.62;59.19;101048.41;4994789;28;20421;-69
2022/10/02 02:05:24;;;;;;;1.38;0.40;;;;;;;8.73;59.03;101052.44;5010092;28;22389;-70
2022/10/02 02:08:15;;;;;;;4.30;0.52;;;;;;;8.78;58.59;101049.69;5010878;28;20049;-71
2022/10/02 02:11:00;;;;;;;6.50;0.47;;;;;;;8.59;59.05;101048.53;5007039;28;20497;-70
2022/10/02 02:13:36;;;;;;;2.30;0.30;;;;;;;8.66;59.27;101050.03;5008214;28;20357;-71
2022/10/02 02:16:07;;;;;;;9.20;0.88;;;;;;;8.80;58.97;101049.66;5011647;28;20038;-71
2022/10/02 02:18:39;;;;;;;3.38;0.50;;;;;;;8.86;58.83;101039.06;4995605;28;20077;-65
2022/10/02 02:21:17;;;;;;;3.85;0.43;;;;;;;9.00;58.24;101043.84;5013704;28;20043;-66
2022/10/02 02:23:45;;;;;;;9.93;0.65;;;;;;;8.78;58.62;101047.09;5004868;28;20520;-66
2022/10/02 02:26:12;;;;;;;4.60;1.02;;;;;;;8.97;57.93;101040.44;5005485;28;20245;-67
2022/10/02 02:28:47;;;;;;;4.78;0.20;;;;;;;9.00;57.36;101043.84;5006879;28;20049;-67
2022/10/02 02:31:18;;;;;;;1.42;0.30;;;;;;;8.76;58.46;101036.75;5006202;28;20160;-67
2022/10/02 02:34:00;;;;;;;3.22;0.40;;;;;;;8.85;58.01;101034.72;5005168;28;20050;-66
2022/10/02 02:36:30;;;;;;;;;;;;;;;8.73;57.92;101038.56;5007643;28;20037;-67
2022/10/02 02:39:02;;;;;;;6.50;0.77;;;;;;;8.21;60.62;101037.44;5006075;28;20007;-67
2022/10/02 02:41:33;;;;;;;3.13;0.32;;;;;;;8.43;59.40;101041.13;5006708;28;20045;-66
2022/10/02 02:44:20;;;;;;;2.03;0.37;;;;;;;8.46;59.98;101038.44;5024141;28;20068;-67
2022/10/02 02:47:20;;;;;;;5.32;0.40;;;;;;;8.67;59.51;101041.31;5006878;28;20045;-66
2022/10/02 02:50:04;;;;;;;3.67;0.88;;;;;;;8.55;60.04;101045.97;5005194;28;20033;-66
2022/10/02 02:52:34;;;;;;;4.50;0.40;;;;;;;8.57;60.07;101052.00;5003845;28;20149;-70
2022/10/02 02:55:11;;;;;;;5.43;1.13;;;;;;;8.51;60.00;101041.75;5025110;28;20046;-70
2022/10/02 02:57:46;;;;;;;7.63;0.40;;;;;;;8.76;59.20;101038.47;5009667;28;20064;-69
2022/10/02 03:00:14;;;;;;;4.82;0.50;;;;;;;8.69;59.42;101040.38;5013354;28;20037;-69
2022/10/02 03:02:40;;;;;;;10.45;1.00;;;;;;;8.65;59.57;101043.09;5003701;28;20041;-70
2022/10/02 03:05:12;;;;;;;4.70;0.50;;;;;;;8.54;59.83;101033.88;5006047;28;20046;-71
2022/10/02 03:07:38;;;;;;;17.35;0.93;;;;;;;8.74;59.14;101037.69;5002564;28;20510;-73
2022/10/02 03:10:19;;;;;;;3.28;0.73;;;;;;;8.81;59.16;101040.94;5006189;28;20037;-69
2022/10/02 03:13:02;;;;;;;8.87;1.27;;;;;;;8.49;60.48;101040.94;5003796;28;20064;-70
2022/10/02 03:15:39;;;;;;;8.90;0.98;;;;;;;8.46;60.11;101043.66;5027564;28;20196;-71
2022/10/02 03:18:33;;;;;;;4.28;1.00;;;;;;;8.85;58.77;101032.13;5009012;28;20043;-69
2022/10/02 03:21:20;;;;;;;4.13;1.08;;;;;;;8.73;59.19;101038.56;5004094;28;20037;-68
2022/10/02 03:24:04;;;;;;;3.88;0.68;;;;;;;8.69;59.25;101039.53;5001213;28;20049;-68
2022/10/02 03:26:44;;;;;;;3.70;0.68;;;;;;;8.47;60.63;101039.28;5007786;28;20369;-68
2022/10/02 03:29:19;;;;;;;7.25;1.00;;;;;;;8.69;59.73;101044.72;5001777;28;20049;-68
2022/10/02 03:31:46;;;;;;;7.95;1.10;;;;;;;8.38;61.16;101049.97;5006759;28;20180;-68
2022/10/02 03:34:12;;;;;;;15.23;1.30;;;;;;;8.38;61.13;101052.56;5007047;28;20021;-68
2022/10/02 03:36:38;;;;;;;6.40;1.15;;;;;;;8.82;59.90;101055.69;5006383;28;20548;-66
2022/10/02 03:39:05;;;;;;;5.75;1.38;;;;;;;8.68;60.36;101058.66;5005046;28;20345;-67
2022/10/02 03:41:30;;;;;;;4.57;1.55;;;;;;;8.80;59.81;101057.47;5009807;28;20524;-67
2022/10/02 03:43:56;;;;;;;6.32;1.60;;;;;;;8.62;60.89;101064.06;5006640;28;20042;-67
2022/10/02 03:46:24;;;;;;;9.02;1.20;;;;;;;8.51;61.67;101057.38;5005004;28;20032;-68
2022/10/02 03:48:50;;;;;;;9.95;1.17;;;;;;;8.77;60.77;101061.03;5006772;28;20059;-68
2022/10/02 03:51:15;;;;;;;7.30;1.00;;;;;;;8.82;61.06;101060.91;5005391;28;20136;-67
2022/10/02 03:53:41;;;;;;;8.13;1.70;;;;;;;8.75;60.81;101068.03;5012161;28;20111;-68
2022/10/02 03:56:11;;;;;;;7.13;1.02;;;;;;;8.87;60.29;101075.47;5004400;28;20022;-67
2022/10/02 03:58:42;;;;;;;6.97;1.42;;;;;;;8.83;60.84;101089.53;5006779;28;20050;-71
2022/10/02 04:01:14;;;;;;;5.78;1.40;;;;;;;8.40;62.35;101103.72;5002100;28;20038;-70
2022/10/02 04:03:48;;;;;;;11.45;1.63;;;;;;;8.59;62.12;101121.47;5009890;28;20053;-70
2022/10/02 04:06:34;;;;;;;9.40;2.78;;;;;;;8.31;62.60;101124.81;5004408;28;20041;-69
2022/10/02 04:09:05;;;;;;;7.05;0.70;;;;;;;8.53;62.23;101107.69;4993635;28;20046;-70
2022/10/02 04:11:39;;;;;;;3.03;0.50;;;;;;;8.83;61.23;101099.97;5004332;28;20173;-69
2022/10/02 04:14:15;;;;;;;6.13;0.50;;;;;;;8.86;60.86;101101.63;5007561;28;20045;-69
2022/10/02 04:16:55;;;;;;;3.45;0.47;;;;;;;8.96;60.86;101100.44;5007044;28;20045;-70
2022/10/02 04:19:28;;;;;;;4.15;0.50;;;;;;;9.04;60.55;101102.81;5004261;28;20048;-69
2022/10/02 04:22:12;;;;;;;3.45;0.30;;;;;;;8.89;60.92;101094.53;5006986;28;20033;-70
2022/10/02 04:24:50;;;;;;;7.22;0.47;;;;;;;9.23;60.31;101096.16;5010430;28;20038;-67
2022/10/02 04:27:30;;;;;;;14.25;1.13;;;;;;;9.01;61.18;101105.50;5005137;28;20046;-67
2022/10/02 04:30:01;;;;;;;9.88;0.98;;;;;;;8.80;62.04;101114.81;5008308;28;20151;-67
2022/10/02 04:32:30;;;;;;;2.95;0.75;;;;;;;9.01;61.61;101115.94;5007491;28;20056;-69
2022/10/02 04:34:58;;;;;;;5.28;0.75;;;;;;;8.68;62.59;101105.56;5013701;28;20329;-67
2022/10/02 04:37:34;;;;;;;7.18;0.70;;;;;;;8.86;62.18;101119.88;5006283;28;20049;-69
2022/10/02 04:40:11;;;;;;;6.95;1.20;;;;;;;8.85;62.53;101108.59;5010270;28;20717;-69
2022/10/02 04:42:49;;;;;;;5.63;1.08;;;;;;;9.30;60.88;101099.44;5008527;28;20053;-68
2022/10/02 04:45:26;;;;;;;4.68;0.73;;;;;;;9.25;61.04;101098.69;5007055;28;20182;-68
2022/10/02 04:48:16;;;;;;;9.63;0.65;;;;;;;9.19;61.25;101108.44;5005899;28;20049;-67
2022/10/02 04:51:00;;;;;;;7.82;0.95;;;;;;;8.92;61.59;101097.09;5010116;28;20129;-68
2022/10/02 04:53:29;;;;;;;6.65;0.90;;;;;;;9.39;60.32;101097.38;5008495;28;20430;-67
2022/10/02 04:55:57;;;;;;;5.78;0.82;;;;;;;9.37;59.99;101108.78;5008726;28;20038;-66
2022/10/02 04:58:35;;;;;;;7.10;0.50;;;;;;;9.46;59.62;101115.47;5013125;28;20124;-68
2022/10/02 05:01:38;;;;;;;8.75;0.98;;;;;;;9.31;60.49;101120.22;5008901;28;20045;-68
2022/10/02 05:04:46;;;;;;;4.82;0.88;;;;;;;9.52;60.05;101123.06;5010614;28;20127;-67
2022/10/02 05:07:46;;;;;;;2.55;0.77;;;;;;;9.55;59.68;101129.06;5011670;28;20050;-68
2022/10/02 05:10:23;;;;;;;5.38;0.50;;;;;;;9.62;59.59;101131.47;5007394;28;20030;-68
2022/10/02 05:13:24;;;;;;;6.30;1.15;;;;;;;9.58;59.76;101122.88;5013003;28;20071;-67
2022/10/02 05:15:56;;;;;;;5.80;1.30;;;;;;;9.66;59.20;101133.94;4947377;28;20073;-68
2022/10/02 05:18:53;;;;;;;3.10;0.50;;;;;;;9.70;58.96;101134.69;5005540;28;20050;-68
2022/10/02 05:21:28;;;;;;;1.98;0.50;;;;;;;9.67;59.27;101129.56;5007915;28;20557;-67
2022/10/02 05:23:56;;;;;;;8.75;0.88;;;;;;;9.67;58.86;101134.78;5007017;28;20400;-69
2022/10/02 05:26:47;;;;;;;11.95;1.63;;;;;;;9.47;59.43;101127.59;5008404;28;20184;-67
2022/10/02 05:29:15;;;;;;;3.97;0.40;;;;;;;9.37;59.05;101127.88;5004943;28;20701;-68
2022/10/02 05:32:14;;;;;;;5.65;0.52;;;;;;;9.27;59.47;101120.38;5013267;28;20021;-68
2022/10/02 05:34:55;;;;;;;6.45;0.50;;;;;;;9.09;59.53;101121.78;5009996;28;20144;-69
2022/10/02 05:37:32;;;;;;;3.60;1.25;;;;;;;9.10;59.81;101119.13;5010882;28;20422;-67
2022/10/02 05:40:13;;;;;;;9.18;1.67;;;;;;;9.04;59.73;101121.06;5008241;28;20033;-67
2022/10/02 05:42:47;;;;;;;11.65;0.50;;;;;;;9.09;59.42;101121.78;5008089;28;20760;-68
2022/10/02 05:45:25;;;;;;;5.53;0.95;;;;;;;8.95;59.71;101124.81;5008839;28;20045;-68
2022/10/02 05:47:54;;;;;;;4.45;0.50;;;;;;;8.87;60.49;101130.22;5006736;28;20037;-69
2022/10/02 05:50:28;;;;;;;4.18;0.40;;;;;;;8.84;60.61;101130.31;5008244;28;20044;-69
2022/10/02 05:52:56;;;;;;;3.60;0.55;;;;;;;8.53;61.15;101141.56;4994553;28;20049;-67
2022/10/02 05:55:42;;;;;;;3.75;0.77;;;;;;;8.71;60.83;101145.44;5007937;28;20037;-67
2022/10/02 05:58:49;;;;;;;4.30;0.73;;;;;;;8.91;60.76;101144.03;5002586;28;20080;-68
2022/10/02 06:01:24;;;;;;;11.32;1.05;;;;;;;8.60;61.83;101149.22;5004879;28;20453;-70
2022/10/02 06:04:02;;;;;;;6.63;1.38;;;;;;;8.69;61.43;101154.19;5007571;28;20087;-70
2022/10/02 06:06:45;;;;;;;7.07;0.82;;;;;;;8.81;61.50;101164.31;5006947;28;21025;-70
2022/10/02 06:09:16;;;;;;;8.63;0.50;;;;;;;9.06;60.97;101168.81;5007832;28;20313;-71
2022/10/02 06:11:51;;;;;;;5.97;0.60;;;;;;;9.28;60.87;101167.28;5006772;28;20716;-71
2022/10/02 06:14:26;;;;;;;9.95;0.57;;;;;;;8.92;61.17;101174.44;5011060;28;20037;-71
2022/10/02 06:17:00;;;;;;;5.90;0.50;;;;;;;9.32;60.37;101173.25;5008679;28;20025;-71
2022/10/02 06:20:01;;;;;;;17.65;0.93;;;;;;;9.26;60.54;101174.31;5010571;28;20100;-69
2022/10/02 06:22:39;;;;;;;12.63;1.27;;;;;;;9.60;59.38;101183.72;4983680;28;20057;-68
2022/10/02 06:25:16;;;;;;;4.90;0.98;;;;;;;9.58;59.80;101178.53;5005083;28;20041;-69
2022/10/02 06:28:00;;;;;;;7.22;1.13;;;;;;;9.98;58.86;101181.69;5005716;28;20124;-68
2022/10/02 06:30:29;;;;;;;4.40;0.47;;;;;;;9.91;58.99;101174.94;5011602;28;20068;-68
2022/10/02 06:33:08;;;;;;;5.30;0.70;;;;;;;10.15;58.65;101192.44;5004412;28;20050;-68
2022/10/02 06:35:51;;;;;;;5.57;0.40;;;;;;;10.97;57.72;101206.19;5005345;28;20037;-68
2022/10/02 06:38:25;;;;;;;10.10;0.50;;;;;;;12.66;54.03;101196.81;5005611;28;20052;-67
2022/10/02 06:41:08;;;;;;;5.50;0.68;;;;;;;13.60;53.26;101194.38;5004721;28;20034;-69
2022/10/02 06:43:56;;;;;;;8.23;0.57;;;;;;;15.09;48.37;101203.50;5009949;28;20499;-70
2022/10/02 06:46:26;;;;;;;6.22;0.45;;;;;;;15.89;47.72;101214.91;4992717;28;20786;-71
2022/10/02 06:49:08;;;;;;;4.20;0.60;;;;;;;15.10;45.77;101221.00;5005075;28;20134;-71
2022/10/02 06:51:34;;;;;;;;;;;;;;;13.45;49.73;101220.44;5012354;28;20338;-72
2022/10/02 06:54:18;;;;;;;4.25;0.63;;;;;;;12.63;51.41;101220.56;5004112;28;19929;-71
2022/10/02 06:56:55;;;;;;;2.65;0.50;;;;;;;11.62;53.59;101219.44;5005601;28;20076;-72
2022/10/02 06:59:26;;;;;;;5.10;0.65;;;;;;;11.48;54.25;101226.97;5004823;28;20069;-72
2022/10/02 07:02:00;;;;;;;10.50;0.63;;;;;;;11.18;55.00;101228.06;5005085;28;20173;-70
2022/10/02 07:05:09;;;;;;;11.93;0.65;;;;;;;10.59;56.68;101221.44;5009731;28;20033;-72
2022/10/02 07:08:00;;;;;;;9.15;1.02;;;;;;;11.67;56.32;101215.72;4977276;28;20042;-70
2022/10/02 07:10:29;;;;;;;11.32;1.15;;;;;;;13.70;51.90;101224.56;5003879;28;20051;-70
2022/10/02 07:12:59;;;;;;;5.05;0.60;;;;;;;16.62;46.00;101224.72;5003790;28;20041;-69
2022/10/02 07:16:07;;;;;;;6.30;0.70;;;;;;;18.48;39.67;101226.16;5002959;28;20099;-70
2022/10/02 07:18:43;;;;;;;4.57;0.50;;;;;;;18.62;37.85;101227.88;4966049;28;20519;-68
2022/10/02 07:21:18;;;;;;;5.95;0.30;;;;;;;16.54;40.24;101227.00;5003451;28;20677;-69
2022/10/02 07:23:53;;;;;;;4.80;1.23;;;;;;;14.77;44.62;101239.44;5010592;28;20049;-70
2022/10/02 07:26:37;;;;;;;5.07;0.40;;;;;;;14.00;46.87;101235.34;5005205;28;20473;-69
2022/10/02 07:29:24;;;;;;;7.95;0.88;;;;;;;14.83;46.98;101240.88;5003492;28;20103;-69
2022/10/02 07:32:10;;;;;;;2.85;0.60;;;;;;;16.92;41.12;101243.19;5008695;28;20126;-67
2022/10/02 07:34:54;;;;;;;6.95;0.52;;;;;;;15.71;42.14;101247.59;5008476;28;20044;-69
2022/10/02 07:37:28;;;;;;;5.43;0.63;;;;;;;14.14;45.71;101255.69;5006633;28;20045;-71
2022/10/02 07:40:33;;;;;;;8.18;0.40;;;;;;;13.13;49.38;101257.78;5005006;28;20041;-69
2022/10/02 07:43:40;;;;;;;12.60;1.13;;;;;;;12.41;51.39;101275.66;4957271;28;20468;-68
2022/10/02 07:46:40;;;;;;;9.63;1.48;;;;;;;11.91;53.28;101288.19;4960271;28;20735;-69
2022/10/02 07:49:21;;;;;;;11.68;0.75;;;;;;;11.25;54.75;101284.50;4982393;28;20045;-68
2022/10/02 07:52:22;;;;;;;6.82;0.82;;;;;;;10.73;56.18;101285.47;5004254;28;20140;-69
2022/10/02 07:54:57;;;;;;;4.55;0.40;;;;;;;10.89;56.23;101293.66;4996761;28;20127;-70
2022/10/02 07:57:34;;;;;;;3.45;0.52;;;;;;;10.83;56.26;101286.88;5008972;28;20050;-70
2022/10/02 08:00:12;;;;;;;5.95;0.63;;;;;;;11.04;56.34;101286.13;5010254;28;20110;-70
2022/10/02 08:02:45;;;;;;;7.70;0.63;;;;;;;11.27;55.25;101292.28;5007880;28;20051;-70
2022/10/02 08:05:20;;;;;;;7.10;0.82;;;;;;;11.00;56.35;101300.22;5009193;28;20045;-71
2022/10/02 08:07:49;;;;;;;4.85;0.52;;;;;;;11.29;55.81;101300.09;5010968;28;20041;-71
2022/10/02 08:10:20;;;;;;;11.45;1.20;;;;;;;11.78;56.64;101298.31;5014082;28;20034;-70
2022/10/02 08:12:56;;;;;;;8.85;0.63;;;;;;;13.64;49.01;101298.38;5012825;28;20049;-68
2022/10/02 08:15:24;;;;;;;5.25;0.47;;;;;;;15.47;47.02;101298.03;5008131;28;20041;-69
2022/10/02 08:17:54;;;;;;;5.15;0.52;;;;;;;17.08;41.30;101300.34;5008332;28;20051;-69
2022/10/02 08:20:23;;;;;;;4.65;0.45;;;;;;;17.61;41.11;101314.72;5009405;28;20048;-69
2022/10/02 08:23:14;;;;;;;3.60;0.70;;;;;;;18.46;40.40;101312.75;5006122;28;20045;-70
2022/10/02 08:26:05;;;;;;;8.48;1.05;;;;;;;16.15;42.18;101320.69;4998941;28;20759;-70
2022/10/02 08:28:55;;;;;;;10.63;0.40;;;;;;;14.79;46.99;101321.78;5007404;28;20463;-69
2022/10/02 08:31:22;;;;;;;4.53;0.80;;;;;;;14.23;48.10;101317.50;5002341;28;20045;-69
2022/10/02 08:33:47;;;;;;;11.65;0.82;;;;;;;12.04;53.45;101336.56;5008545;28;20053;-68
2022/10/02 08:36:41;;;;;;;8.75;0.73;;;;;;;11.26;55.96;101340.28;5007421;28;20699;-70
2022/10/02 08:39:28;;;;;;;6.03;0.75;;;;;;;12.18;54.89;101347.38;5007496;28;20656;-70
2022/10/02 08:42:08;;;;;;;4.60;1.23;;;;;;;11.83;55.81;101339.09;5005957;28;20046;-70
2022/10/02 08:45:22;;;;;;;9.25;0.63;;;;;;;12.17;55.50;101345.66;5008542;28;20166;-70
2022/10/02 08:48:25;;;;;;;8.50;0.95;;;;;;;12.49;53.41;101349.63;4945084;28;20126;-71
2022/10/02 08:51:12;;;;;;;8.70;0.80;;;;;;;12.83;53.00;101363.16;4989560;28;20044;-71
2022/10/02 08:53:44;;;;;;;4.45;1.20;;;;;;;12.78;53.33;101360.72;5010705;28;20042;-70
2022/10/02 08:56:33;;;;;;;3.08;0.40;;;;;;;12.67;53.23;101358.50;5008987;28;20041;-72
2022/10/02 08:59:22;;;;;;;6.45;0.77;;;;;;;12.62;53.10;101364.84;5007114;28;20057;-71
2022/10/02 09:02:08;;;;;;;8.05;0.98;;;;;;;13.42;52.17;101362.34;5009039;28;20031;-71
2022/10/02 09:05:25;;;;;;;8.95;0.82;;;;;;;12.33;53.46;101369.50;5006869;28;20164;-69
2022/10/02 09:08:07;;;;;;;7.35;0.70;;;;;;;12.82;52.44;101371.94;5008841;28;20088;-72
2022/10/02 09:11:00;;;;;;;7.07;0.85;;;;;;;12.86;53.47;101370.88;5014436;28;20617;-70
2022/10/02 09:13:59;;;;;;;11.30;0.65;;;;;;;13.28;52.08;101373.44;5005566;28;20045;-70
2022/10/02 09:16:43;;;;;;;5.10;1.05;;;;;;;14.22;51.09;101379.75;5005779;28;20033;-71
2022/10/02 09:20:04;;;;;;;7.45;0.75;;;;;;;14.60;48.33;101382.34;5004642;28;20057;-68
2022/10/02 09:22:55;;;;;;;9.80;0.70;;;;;;;14.90;48.05;101376.47;4985669;28;20665;-68
2022/10/02 09:25:57;;;;;;;11.82;0.88;;;;;;;15.98;45.92;101377.81;5008842;28;20025;-70
2022/10/02 09:28:41;;;;;;;8.80;1.35;;;;;;;16.35;43.85;101373.19;5004852;28;20041;-69
2022/10/02 09:31:39;;;;;;;8.98;1.20;;;;;;;16.02;43.34;101369.78;5026617;28;20033;-70
2022/10/02 09:34:26;;;;;;;8.25;1.73;;;;;;;15.36;45.99;101371.50;5003644;28;20049;-69
2022/10/02 09:37:16;;;;;;;8.90;1.10;;;;;;;14.93;46.97;101392.13;5003743;28;20510;-69
2022/10/02 09:39:50;;;;;;;9.57;1.38;;;;;;;14.83;45.65;101381.19;4995428;28;20042;-70
2022/10/02 09:42:43;;;;;;;7.72;0.82;;;;;;;15.79;45.70;101385.03;4994678;28;20041;-70
2022/10/02 09:46:00;;;;;;;12.82;0.65;;;;;;;15.58;45.62;101379.13;5005355;28;20122;-71
2022/10/02 09:49:01;;;;;;;5.53;0.60;;;;;;;;;;4954483;28;20101;-70
2022/10/02 09:51:41;;;;;;;5.13;0.57;;;;;;;14.77;47.03;101384.16;4912938;29;20118;-71
2022/10/02 09:54:40;;;;;;;7.45;0.80;;;;;;;16.11;45.60;101387.75;4975917;28;20061;-70
2022/10/02 09:57:36;;;;;;;4.40;0.95;;;;;;;17.01;43.14;101387.84;4988282;28;20057;-71
2022/10/02 10:00:33;;;;;;;8.80;0.57;;;;;;;17.52;41.62;101386.63;5004442;28;20037;-71
2022/10/02 10:03:28;;;;;;;10.82;1.30;;;;;;;16.14;43.06;101384.94;5007335;28;20073;-70
2022/10/02 10:06:21;;;;;;;9.30;0.40;;;;;;;17.36;43.68;101395.47;5006283;28;20189;-72
2022/10/02 10:09:35;;;;;;;9.27;1.27;;;;;;;18.79;40.33;101385.59;5021040;28;20050;-71
2022/10/02 10:12:26;;;;;;;4.55;0.68;;;;;;;19.74;38.90;101388.84;5010345;28;20036;-68
2022/10/02 10:15:10;;;;;;;10.05;1.10;;;;;;;19.61;38.17;101391.50;5012035;28;20156;-69
2022/10/02 10:18:02;;;;;;;9.75;0.65;;;;;;;18.25;38.04;101389.09;5004177;28;20041;-69
2022/10/02 10:21:10;;;;;;;9.00;0.60;;;;;;;17.99;41.08;101399.53;5009841;28;20037;-69
2022/10/02 10:23:59;;;;;;;8.43;0.65;;;;;;;17.22;42.30;101409.50;4966445;28;20139;-70
2022/10/02 10:26:47;;;;;;;9.13;1.20;;;;;;;16.70;41.52;101417.81;4986166;28;20050;-68
2022/10/02 10:29:30;;;;;;;6.85;1.45;;;;;;;15.27;41.62;101416.78;4988566;28;20048;-70
2022/10/02 10:32:27;;;;;;;3.42;0.85;;;;;;;14.91;41.14;101415.88;4983882;28;20130;-69
2022/10/02 10:35:07;;;;;;;10.52;1.20;;;;;;;15.61;40.20;101430.81;4989949;28;20136;-70
2022/10/02 10:40:59;;;;;;;13.38;1.30;;;;;;;16.24;38.86;101420.38;4997221;28;20044;-71
2022/10/02 10:43:55;;;;;;;9.40;1.13;;;;;;;17.61;36.93;101431.84;4985442;28;20034;-69
2022/10/02 10:46:33;;;;;;;9.93;1.05;;;;;;;17.70;36.34;101421.66;4982191;28;20426;-70
2022/10/02 10:49:21;;;;;;;11.70;1.08;;;;;;;17.29;36.95;101436.41;5007642;28;20056;-70
2022/10/02 10:52:02;;;;;;;10.07;1.58;;;;;;;16.45;37.02;101417.50;5003399;28;20033;-69
2022/10/02 10:54:52;;;;;;;7.82;0.60;;;;;;;15.55;38.94;101431.97;5024103;28;20121;-71
2022/10/02 10:57:58;;;;;;;10.85;1.65;;;;;;;15.63;39.83;101439.50;5000235;28;20124;-70
2022/10/02 11:00:28;;;;;;;7.75;0.52;;;;;;;15.86;39.95;101451.44;5002715;28;20076;-71
2022/10/02 11:03:01;;;;;;;8.20;1.48;;;;;;;15.30;40.55;101442.94;5003473;28;20076;-70
2022/10/02 11:06:04;;;;;;;6.78;0.50;;;;;;;16.66;39.06;101441.81;5005603;28;20059;-70
2022/10/02 11:09:02;;;;;;;9.50;0.70;;;;;;;16.55;38.97;101456.47;5003679;28;20049;-72
2022/10/02 11:11:39;;;;;;;8.25;1.75;;;;;;;15.70;41.43;101452.25;5001403;28;20698;-71
2022/10/02 11:14:27;;;;;;;8.45;1.08;;;;;;;15.17;42.83;101454.06;5002246;28;20089;-71
2022/10/02 11:17:07;;;;;;;7.03;1.20;;;;;;;14.73;43.85;101470.25;5020104;28;20037;-71
2022/10/02 11:19:36;;;;;;;14.05;1.58;;;;;;;16.04;43.35;101466.34;5005029;28;20030;-71
2022/10/02 11:22:28;;;;;;;14.38;1.10;;;;;;;16.48;40.55;101464.81;5004080;28;20072;-71
2022/10/02 11:25:33;;;;;;;8.40;0.50;;;;;;;17.27;38.14;101463.84;5004277;28;20089;-70
2022/10/02 11:28:45;;;;;;;3.50;0.68;;;;;;;16.94;37.98;101472.81;5004207;28;20053;-70
2022/10/02 11:31:28;;;;;;;;;;;;;;;17.06;36.47;101471.25;4988561;28;20088;-70
2022/10/02 11:34:07;;;;;;;7.22;0.32;;;;;;;17.76;33.91;101468.84;5007730;28;19920;-70
2022/10/02 11:36:45;;;;;;;7.63;0.45;;;;;;;16.88;34.88;101478.44;5012453;28;20117;-69
2022/10/02 11:39:19;;;;;;;5.75;0.25;;;;;;;17.18;33.54;101474.03;5007083;28;20045;-70
2022/10/02 11:42:35;;;;;;;7.15;0.82;;;;;;;16.74;34.11;101482.69;5013361;28;20333;-70
2022/10/02 11:45:19;;;;;;;6.85;0.35;;;;;;;16.30;35.96;101471.97;4929128;28;20070;-70
2022/10/02 11:47:47;;;;;;;11.38;0.40;;;;;;;16.41;36.96;101478.34;4996309;28;20081;-70
2022/10/02 11:50:38;;;;;;;3.38;0.20;;;;;;;17.15;35.98;101479.47;4974946;28;20042;-70
2022/10/02 11:53:39;;;;;;;11.20;1.02;;;;;;;17.44;36.45;101482.19;4990205;28;20137;-70
2022/10/02 11:56:14;;;;;;;11.30;1.38;;;;;;;17.20;35.63;101482.72;5009740;28;20411;-70
2022/10/02 11:59:17;;;;;;;5.28;0.65;;;;;;;16.71;36.77;101484.63;4983864;28;20120;-70
2022/10/02 12:01:56;;;;;;;5.18;0.63;;;;;;;17.52;37.02;101485.25;4987421;28;20215;-69
2022/10/02 12:04:39;;;;;;;6.07;0.45;;;;;;;17.69;36.19;101486.88;4983651;28;20044;-69
2022/10/02 12:07:34;;;;;;;8.02;0.80;;;;;;;17.93;34.55;101497.75;4989534;28;20065;-70
2022/10/02 12:10:19;;;;;;;10.77;0.70;;;;;;;17.88;35.88;101499.84;4977074;28;20038;-70
2022/10/02 12:13:23;;;;;;;8.30;0.68;;;;;;;17.12;35.04;101503.44;4985859;28;20064;-70
2022/10/02 12:15:52;;;;;;;12.02;1.52;;;;;;;17.16;35.64;101509.41;4988772;28;20027;-71
2022/10/02 12:18:49;;;;;;;7.72;0.30;;;;;;;17.89;34.96;101506.81;4986685;28;21935;-70
2022/10/02 12:27:41;;;;;;;10.75;1.10;;;;;;;15.99;37.47;101521.03;4987293;28;20045;-70
2022/10/02 12:30:13;;;;;;;12.85;1.35;;;;;;;16.55;36.39;101518.94;5008222;28;20038;-69
2022/10/02 12:33:16;;;;;;;5.35;1.00;;;;;;;17.01;35.12;101524.31;5005829;28;20124;-70
2022/10/02 12:35:41;;;;;;;6.30;0.80;;;;;;;16.44;36.00;101530.09;4994426;28;20049;-69
2022/10/02 12:38:26;;;;;;;7.47;0.60;;;;;;;16.00;37.83;101535.97;5005754;28;20048;-70
2022/10/02 12:41:22;;;;;;;4.68;0.50;;;;;;;15.38;38.16;101541.69;5011389;28;20068;-70
2022/10/02 12:44:24;;;;;;;7.68;0.82;;;;;;;15.50;36.70;101537.59;5006715;28;20040;-70
2022/10/02 12:46:58;;;;;;;9.75;1.15;;;;;;;15.46;37.69;101538.69;5003959;28;20488;-70